Observation data for Silverton on 02/14/2020      Previous  Date  Next       Current Mesonet Observations  Soil Data  Daily Summary Page  Observations in Plain Language
KSVS 140600Z 10010KT M06/M10 A3029 RMK A01 T10641097  RH  077%=      5-min Rain = 0
KSVS 140605Z 11010KT M07/M10 A3029 RMK A01 T10651097  RH  078%=      5-min Rain = 0
KSVS 140610Z 11009KT M07/M10 A3029 RMK A01 T10661097  RH  078%=      5-min Rain = 0
KSVS 140615Z 11009KT M07/M10 A3029 RMK A01 T10671097  RH  078%=      5-min Rain = 0
KSVS 140620Z 11011KT M07/M10 A3029 RMK A01 T10661099  RH  077%=      5-min Rain = 0
KSVS 140625Z 11010KT M07/M10 A3029 RMK A01 T10671099  RH  078%=      5-min Rain = 0
KSVS 140630Z 11010KT M07/M10 A3029 RMK A01 T10671098  RH  078%=      5-min Rain = 0
KSVS 140635Z 11010KT M07/M10 A3029 RMK A01 T10681098  RH  079%=      5-min Rain = 0
KSVS 140640Z 11009KT M07/M10 A3029 RMK A01 T10681100  RH  078%=      5-min Rain = 0
KSVS 140645Z 11010KT M07/M10 A3029 RMK A01 T10691101  RH  078%=      5-min Rain = 0
KSVS 140650Z 11011KT M07/M10 A3029 RMK A01 T10691103  RH  077%=      5-min Rain = 0
KSVS 140655Z 11011KT M07/M11 A3029 RMK A01 T10701105  RH  076%=      5-min Rain = 0
KSVS 140700Z 11010KT M07/M10 A3029 RMK A01 T10701104  RH  076%=      5-min Rain = 0
KSVS 140705Z 11009KT M07/M10 A3029 RMK A01 T10721104  RH  077%=      5-min Rain = 0
KSVS 140710Z 11008KT M07/M10 A3029 RMK A01 T10731104  RH  078%=      5-min Rain = 0
KSVS 140715Z 11008KT M07/M10 A303 RMK A01 T10731103  RH  079%=      5-min Rain = 0
KSVS 140720Z 11007KT M07/M10 A303 RMK A01 T10741104  RH  079%=      5-min Rain = 0
KSVS 140725Z 11007KT M08/M10 A303 RMK A01 T10751103  RH  080%=      5-min Rain = 0
KSVS 140730Z 11007KT M08/M10 A303 RMK A01 T10751104  RH  079%=      5-min Rain = 0
KSVS 140735Z 11007KT M08/M11 A303 RMK A01 T10751105  RH  079%=      5-min Rain = 0
KSVS 140740Z 11007KT M08/M11 A303 RMK A01 T10761105  RH  079%=      5-min Rain = 0
KSVS 140745Z 11007KT M08/M11 A303 RMK A01 T10761105  RH  080%=      5-min Rain = 0
KSVS 140750Z 11007KT M08/M11 A303 RMK A01 T10771105  RH  080%=      5-min Rain = 0
KSVS 140755Z 11007KT M08/M11 A303 RMK A01 T10771106  RH  079%=      5-min Rain = 0
KSVS 140800Z 11007KT M08/M11 A303 RMK A01 T10771106  RH  079%=      5-min Rain = 0
KSVS 140805Z 11007KT M08/M11 A303 RMK A01 T10781106  RH  080%=      5-min Rain = 0
KSVS 140810Z 11007KT M08/M11 A303 RMK A01 T10791106  RH  080%=      5-min Rain = 0
KSVS 140815Z 11006KT M08/M11 A3031 RMK A01 T10781106  RH  080%=      5-min Rain = 0
KSVS 140820Z 10006KT M08/M11 A3031 RMK A01 T10791105  RH  081%=      5-min Rain = 0
KSVS 140825Z 10006KT M08/M10 A3031 RMK A01 T10791104  RH  081%=      5-min Rain = 0
KSVS 140830Z 10006KT M08/M11 A303 RMK A01 T10791105  RH  082%=      5-min Rain = 0
KSVS 140835Z 10006KT M08/M11 A303 RMK A01 T10791105  RH  081%=      5-min Rain = 0
KSVS 140840Z 10006KT M08/M11 A303 RMK A01 T10801106  RH  082%=      5-min Rain = 0
KSVS 140845Z 09005KT M08/M11 A303 RMK A01 T10811106  RH  082%=      5-min Rain = 0
KSVS 140850Z 09005KT M08/M11 A3031 RMK A01 T10831105  RH  084%=      5-min Rain = 0
KSVS 140855Z 09005KT M08/M10 A3031 RMK A01 T10831104  RH  084%=      5-min Rain = 0
KSVS 140900Z 10005KT M08/M10 A3031 RMK A01 T10831103  RH  085%=      5-min Rain = 0
KSVS 140905Z 10005KT M08/M11 A3031 RMK A01 T10841105  RH  085%=      5-min Rain = 0
KSVS 140910Z 09005KT M09/M10 A3031 RMK A01 T10851104  RH  086%=      5-min Rain = 0
KSVS 140915Z 10005KT M08/M10 A303 RMK A01 T10841104  RH  085%=      5-min Rain = 0
KSVS 140920Z 10005KT M08/M11 A303 RMK A01 T10841105  RH  085%=      5-min Rain = 0
KSVS 140925Z 09005KT M09/M11 A3031 RMK A01 T10851105  RH  085%=      5-min Rain = 0
KSVS 140930Z 09005KT M08/M11 A303 RMK A01 T10841105  RH  085%=      5-min Rain = 0
KSVS 140935Z 09005KT M08/M11 A303 RMK A01 T10841105  RH  084%=      5-min Rain = 0
KSVS 140940Z 09005KT M08/M10 A303 RMK A01 T10831103  RH  085%=      5-min Rain = 0
KSVS 140945Z 09004KT M08/M10 A303 RMK A01 T10811101  RH  085%=      5-min Rain = 0
KSVS 140950Z 10005KT M08/M10 A303 RMK A01 T10791101  RH  084%=      5-min Rain = 0
KSVS 140955Z 10005KT M08/M10 A303 RMK A01 T10791103  RH  082%=      5-min Rain = 0
KSVS 141000Z 10006KT M08/M10 A303 RMK A01 T10781103  RH  082%=      5-min Rain = 0
KSVS 141005Z 10006KT M08/M11 A303 RMK A01 T10781106  RH  080%=      5-min Rain = 0
KSVS 141010Z 11006KT M08/M11 A303 RMK A01 T10771106  RH  080%=      5-min Rain = 0
KSVS 141015Z 10005KT M08/M10 A303 RMK A01 T10771104  RH  080%=      5-min Rain = 0
KSVS 141020Z 10005KT M08/M11 A303 RMK A01 T10771105  RH  080%=      5-min Rain = 0
KSVS 141025Z 10006KT M08/M11 A303 RMK A01 T10781106  RH  080%=      5-min Rain = 0
KSVS 141030Z 11005KT M08/M11 A303 RMK A01 T10781105  RH  080%=      5-min Rain = 0
KSVS 141035Z 11004KT M08/M11 A303 RMK A01 T10781105  RH  081%=      5-min Rain = 0
KSVS 141040Z 11005KT M08/M11 A303 RMK A01 T10781106  RH  080%=      5-min Rain = 0
KSVS 141045Z 11005KT M08/M11 A303 RMK A01 T10791106  RH  080%=      5-min Rain = 0
KSVS 141050Z 12004KT M08/M11 A303 RMK A01 T10791105  RH  082%=      5-min Rain = 0
KSVS 141055Z 12005KT M08/M11 A303 RMK A01 T10791106  RH  081%=      5-min Rain = 0
KSVS 141100Z 12005KT M08/M11 A303 RMK A01 T10811106  RH  082%=      5-min Rain = 0
KSVS 141105Z 13004KT M08/M11 A303 RMK A01 T10831107  RH  083%=      5-min Rain = 0
KSVS 141110Z 13005KT M09/M11 A303 RMK A01 T10871109  RH  084%=      5-min Rain = 0
KSVS 141115Z 13005KT M09/M11 A303 RMK A01 T10891108  RH  085%=      5-min Rain = 0
KSVS 141120Z 13004KT M09/M11 A303 RMK A01 T10881107  RH  086%=      5-min Rain = 0
KSVS 141125Z 13004KT M09/M11 A303 RMK A01 T10871105  RH  086%=      5-min Rain = 0
KSVS 141130Z 12004KT M09/M10 A303 RMK A01 T10851103  RH  086%=      5-min Rain = 0
KSVS 141135Z 13004KT M08/M10 A303 RMK A01 T10831103  RH  085%=      5-min Rain = 0
KSVS 141140Z 13005KT M08/M11 A303 RMK A01 T10831106  RH  084%=      5-min Rain = 0
KSVS 141145Z 13004KT M08/M11 A303 RMK A01 T10841106  RH  084%=      5-min Rain = 0
KSVS 141150Z 13005KT M08/M11 A303 RMK A01 T10841106  RH  084%=      5-min Rain = 0
KSVS 141155Z 13005KT M08/M11 A303 RMK A01 T10841106  RH  084%=      5-min Rain = 0
KSVS 141200Z 12005KT M08/M11 A303 RMK A01 T10841107  RH  083%=      5-min Rain = 0
KSVS 141205Z 12005KT M08/M11 A303 RMK A01 T10821106  RH  083%=      5-min Rain = 0
KSVS 141210Z 12005KT M08/M11 A303 RMK A01 T10821106  RH  082%=      5-min Rain = 0
KSVS 141215Z 13006KT M08/M11 A303 RMK A01 T10811107  RH  082%=      5-min Rain = 0
KSVS 141220Z 12006KT M08/M11 A303 RMK A01 T10821108  RH  081%=      5-min Rain = 0
KSVS 141225Z 13006KT M08/M11 A303 RMK A01 T10811108  RH  081%=      5-min Rain = 0
KSVS 141230Z 12006KT M08/M11 A303 RMK A01 T10811108  RH  080%=      5-min Rain = 0
KSVS 141235Z 12006KT M08/M11 A303 RMK A01 T10811108  RH  080%=      5-min Rain = 0
KSVS 141240Z 12005KT M08/M11 A303 RMK A01 T10811108  RH  081%=      5-min Rain = 0
KSVS 141245Z 12005KT M08/M11 A303 RMK A01 T10811109  RH  080%=      5-min Rain = 0
KSVS 141250Z 12005KT M08/M11 A303 RMK A01 T10811109  RH  080%=      5-min Rain = 0
KSVS 141255Z 12005KT M08/M11 A303 RMK A01 T10841111  RH  080%=      5-min Rain = 0
KSVS 141300Z 13005KT M09/M11 A303 RMK A01 T10881113  RH  082%=      5-min Rain = 0
KSVS 141305Z 13004KT M09/M11 A303 RMK A01 T10911113  RH  083%=      5-min Rain = 0
KSVS 141310Z 13004KT M09/M11 A303 RMK A01 T10931114  RH  084%=      5-min Rain = 0
KSVS 141315Z 13004KT M09/M11 A303 RMK A01 T10941113  RH  086%=      5-min Rain = 0
KSVS 141320Z 14004KT M09/M11 A303 RMK A01 T10941111  RH  087%=      5-min Rain = 0
KSVS 141325Z 14003KT M09/M11 A303 RMK A01 T10911107  RH  088%=      5-min Rain = 0
KSVS 141330Z 14004KT M09/M11 A3031 RMK A01 T10881105  RH  087%=      5-min Rain = 0
KSVS 141335Z 15005KT M09/M11 A3031 RMK A01 T10851105  RH  085%=      5-min Rain = 0
KSVS 141340Z 14005KT M08/M11 A3031 RMK A01 T10841107  RH  083%=      5-min Rain = 0
KSVS 141345Z 15004KT M08/M11 A3031 RMK A01 T10831106  RH  083%=      5-min Rain = 0
KSVS 141350Z 14005KT M08/M11 A3031 RMK A01 T10831106  RH  083%=      5-min Rain = 0
KSVS 141355Z 14005KT M08/M11 A3031 RMK A01 T10811105  RH  083%=      5-min Rain = 0
KSVS 141400Z 14006KT M08/M11 A3031 RMK A01 T10801105  RH  082%=      5-min Rain = 0
KSVS 141405Z 14005KT M08/M11 A3031 RMK A01 T10791105  RH  082%=      5-min Rain = 0
KSVS 141410Z 14006KT M08/M10 A3031 RMK A01 T10781104  RH  081%=      5-min Rain = 0
KSVS 141415Z 14006KT M08/M10 A3031 RMK A01 T10781103  RH  081%=      5-min Rain = 0
KSVS 141420Z 15006KT M08/M10 A3032 RMK A01 T10771103  RH  081%=      5-min Rain = 0
KSVS 141425Z 16006KT M08/M10 A3032 RMK A01 T10761103  RH  081%=      5-min Rain = 0
KSVS 141430Z 14005KT M08/M10 A3032 RMK A01 T10751102  RH  081%=      5-min Rain = 0
KSVS 141435Z 14005KT M07/M10 A3032 RMK A01 T10731099  RH  081%=      5-min Rain = 0
KSVS 141440Z 15006KT M07/M10 A3032 RMK A01 T10731101  RH  080%=      5-min Rain = 0
KSVS 141445Z 15006KT M07/M10 A3032 RMK A01 T10721100  RH  080%=      5-min Rain = 0
KSVS 141450Z 16006KT M07/M10 A3032 RMK A01 T10711100  RH  080%=      5-min Rain = 0
KSVS 141455Z 16007KT M07/M10 A3032 RMK A01 T10701099  RH  080%=      5-min Rain = 0
KSVS 141500Z 16006KT M07/M10 A3032 RMK A01 T10681098  RH  079%=      5-min Rain = 0
KSVS 141505Z 16007KT M07/M10 A3032 RMK A01 T10681098  RH  079%=      5-min Rain = 0
KSVS 141510Z 15007KT M07/M10 A3032 RMK A01 T10661097  RH  078%=      5-min Rain = 0
KSVS 141515Z 15008KT M07/M10 A3032 RMK A01 T10671099  RH  077%=      5-min Rain = 0
KSVS 141520Z 16008KT M07/M10 A3032 RMK A01 T10651097  RH  078%=      5-min Rain = 0
KSVS 141525Z 16007KT M06/M10 A3032 RMK A01 T10631095  RH  077%=      5-min Rain = 0
KSVS 141530Z 17007KT M06/M09 A3032 RMK A01 T10601094  RH  077%=      5-min Rain = 0
KSVS 141535Z 17006KT M06/M09 A3033 RMK A01 T10601094  RH  077%=      5-min Rain = 0
KSVS 141540Z 17007KT M06/M09 A3033 RMK A01 T10611094  RH  077%=      5-min Rain = 0
KSVS 141545Z 16007KT M06/M09 A3033 RMK A01 T10591092  RH  078%=      5-min Rain = 0
KSVS 141550Z 16007KT M06/M09 A3032 RMK A01 T10561090  RH  077%=      5-min Rain = 0
KSVS 141555Z 16007KT M06/M09 A3032 RMK A01 T10551089  RH  077%=      5-min Rain = 0
KSVS 141600Z 16007KT M06/M09 A3032 RMK A01 T10561089  RH  077%=      5-min Rain = 0
KSVS 141605Z 16008KT M05/M09 A3032 RMK A01 T10541088  RH  077%=      5-min Rain = 0
KSVS 141610Z 17008KT M05/M09 A3032 RMK A01 T10531087  RH  077%=      5-min Rain = 0
KSVS 141615Z 17008KT M05/M09 A3032 RMK A01 T10511085  RH  077%=      5-min Rain = 0
KSVS 141620Z 17008KT M05/M09 A3031 RMK A01 T10501085  RH  077%=      5-min Rain = 0
KSVS 141625Z 17007KT M05/M08 A3031 RMK A01 T10471082  RH  077%=      5-min Rain = 0
KSVS 141630Z 17007KT M05/M08 A3031 RMK A01 T10451079  RH  077%=      5-min Rain = 0
KSVS 141635Z 17007KT M04/M08 A3031 RMK A01 T10431078  RH  077%=      5-min Rain = 0
KSVS 141640Z 16007KT M04/M07 A3031 RMK A01 T10371072  RH  076%=      5-min Rain = 0
KSVS 141645Z 18007KT M04/M07 A3031 RMK A01 T10351070  RH  077%=      5-min Rain = 0
KSVS 141650Z 16008KT M03/M07 A3031 RMK A01 T10341070  RH  076%=      5-min Rain = 0
KSVS 141655Z 16008KT M04/M07 A3031 RMK A01 T10351071  RH  076%=      5-min Rain = 0
KSVS 141700Z 15008KT M03/M07 A303 RMK A01 T10321069  RH  076%=      5-min Rain = 0
KSVS 141705Z 15007KT M03/M07 A303 RMK A01 T10331071  RH  075%=      5-min Rain = 0
KSVS 141710Z 15008KT M03/M07 A303 RMK A01 T10301069  RH  075%=      5-min Rain = 0
KSVS 141715Z 16008KT M03/M07 A303 RMK A01 T10291066  RH  076%=      5-min Rain = 0
KSVS 141720Z 17008G13KT M03/M06 A303 RMK A01 T10271064  RH  076%=      5-min Rain = 0
KSVS 141725Z 16009KT M03/M06 A3029 RMK A01 T10251062  RH  076%=      5-min Rain = 0
KSVS 141730Z 17009G16KT M02/M06 A3029 RMK A01 T10231060  RH  076%=      5-min Rain = 0
KSVS 141735Z 17011G19KT M02/M06 A3029 RMK A01 T10191055  RH  076%=      5-min Rain = 0
KSVS 141740Z 19015G21KT M02/M05 A3029 RMK A01 T10161045  RH  081%=      5-min Rain = 0
KSVS 141745Z 18011KT M02/M05 A3028 RMK A01 T10151048  RH  079%=      5-min Rain = 0
KSVS 141750Z 18014KT M01/M04 A3028 RMK A01 T10131044  RH  080%=      5-min Rain = 0
KSVS 141755Z 19012G17KT M01/M04 A3028 RMK A01 T10111042  RH  080%=      5-min Rain = 0
KSVS 141800Z 18013KT M01/M04 A3028 RMK A01 T10101042  RH  080%=      5-min Rain = 0
KSVS 141805Z 18013KT M01/M04 A3028 RMK A01 T10121042  RH  080%=      5-min Rain = 0
KSVS 141810Z 18013KT M01/M04 A3027 RMK A01 T10091040  RH  080%=      5-min Rain = 0
KSVS 141815Z 18013KT M01/M04 A3027 RMK A01 T10081040  RH  080%=      5-min Rain = 0
KSVS 141820Z 19012KT M01/M04 A3027 RMK A01 T10081039  RH  080%=      5-min Rain = 0
KSVS 141825Z 18012KT M01/M04 A3026 RMK A01 T10051038  RH  079%=      5-min Rain = 0
KSVS 141830Z 19013KT M00/M04 A3026 RMK A01 T10041038  RH  078%=      5-min Rain = 0
KSVS 141835Z 19012G17KT M00/M04 A3025 RMK A01 T10031038  RH  078%=      5-min Rain = 0
KSVS 141840Z 19012KT M00/M04 A3025 RMK A01 T10021037  RH  078%=      5-min Rain = 0
KSVS 141845Z 19013KT 00/04 A3025 RMK A01 T00000-35  RH  077%=      5-min Rain = 0
KSVS 141850Z 19014G19KT M00/M04 A3025 RMK A01 T10011037  RH  077%=      5-min Rain = 0
KSVS 141855Z 19012G17KT M00/M04 A3024 RMK A01 T10011036  RH  078%=      5-min Rain = 0
KSVS 141900Z 19010KT 00/M04 A3024 RMK A01 T00011035  RH  077%=      5-min Rain = 0
KSVS 141905Z 19012KT 00/M04 A3023 RMK A01 T00021035  RH  077%=      5-min Rain = 0
KSVS 141910Z 19012G17KT 00/M03 A3023 RMK A01 T00031033  RH  077%=      5-min Rain = 0
KSVS 141915Z 20013KT 00/M03 A3023 RMK A01 T00031033  RH  077%=      5-min Rain = 0
KSVS 141920Z 20012G17KT 01/M03 A3023 RMK A01 T00051031  RH  077%=      5-min Rain = 0
KSVS 141925Z 20014KT 00/M03 A3023 RMK A01 T00041031  RH  078%=      5-min Rain = 0
KSVS 141930Z 20013KT 00/M03 A3023 RMK A01 T00031031  RH  078%=      5-min Rain = 0
KSVS 141935Z 19013KT 00/M03 A3022 RMK A01 T00041030  RH  078%=      5-min Rain = 0
KSVS 141940Z 20011G16KT 01/M03 A3022 RMK A01 T00061030  RH  078%=      5-min Rain = 0
KSVS 141945Z 20012KT 01/M03 A3022 RMK A01 T00051029  RH  078%=      5-min Rain = 0
KSVS 141950Z 19013KT 01/M03 A3021 RMK A01 T00061029  RH  078%=      5-min Rain = 0
KSVS 141955Z 20013G19KT 01/M03 A3021 RMK A01 T00051028  RH  079%=      5-min Rain = 0
KSVS 142000Z 20013KT 01/M03 A3021 RMK A01 T00051028  RH  079%=      5-min Rain = 0
KSVS 142005Z 20013G19KT 01/M03 A3021 RMK A01 T00051028  RH  079%=      5-min Rain = 0
KSVS 142010Z 20013KT 01/M03 A3021 RMK A01 T00061027  RH  079%=      5-min Rain = 0
KSVS 142015Z 19014G19KT 01/M03 A3021 RMK A01 T00051028  RH  079%=      5-min Rain = 0
KSVS 142020Z 20012KT 01/M03 A302 RMK A01 T00071026  RH  079%=      5-min Rain = 0
KSVS 142025Z 19015G20KT 01/M03 A302 RMK A01 T00061026  RH  079%=      5-min Rain = 0
KSVS 142030Z 19014KT 01/M03 A302 RMK A01 T00051027  RH  080%=      5-min Rain = 0
KSVS 142035Z 20011KT 01/M02 A3019 RMK A01 T00081024  RH  079%=      5-min Rain = 0
KSVS 142040Z 19013KT 01/M03 A3019 RMK A01 T00101025  RH  078%=      5-min Rain = 0
KSVS 142045Z 19013KT 01/M02 A3019 RMK A01 T00101024  RH  078%=      5-min Rain = 0
KSVS 142050Z 20012KT 01/M02 A3019 RMK A01 T00131023  RH  078%=      5-min Rain = 0
KSVS 142055Z 20011G16KT 02/M02 A3019 RMK A01 T00151022  RH  077%=      5-min Rain = 0
KSVS 142100Z 21013KT 02/M02 A3018 RMK A01 T00171021  RH  076%=      5-min Rain = 0
KSVS 142105Z 21013G19KT 02/M02 A3018 RMK A01 T00171021  RH  076%=      5-min Rain = 0
KSVS 142110Z 20014G19KT 02/M02 A3018 RMK A01 T00161022  RH  077%=      5-min Rain = 0
KSVS 142115Z 21013G18KT 02/M02 A3018 RMK A01 T00171021  RH  076%=      5-min Rain = 0
KSVS 142120Z 21012KT 02/M02 A3017 RMK A01 T00171021  RH  076%=      5-min Rain = 0
KSVS 142125Z 20014KT 02/M02 A3017 RMK A01 T00161022  RH  076%=      5-min Rain = 0
KSVS 142130Z 20013KT 01/M02 A3017 RMK A01 T00121023  RH  078%=      5-min Rain = 0
KSVS 142135Z 20013KT 01/M02 A3017 RMK A01 T00141022  RH  078%=      5-min Rain = 0
KSVS 142140Z 19014G19KT 01/M02 A3016 RMK A01 T00121023  RH  078%=      5-min Rain = 0
KSVS 142145Z 21013KT 01/M02 A3016 RMK A01 T00121023  RH  078%=      5-min Rain = 0
KSVS 142150Z 21014KT 01/M02 A3016 RMK A01 T00141021  RH  078%=      5-min Rain = 0
KSVS 142155Z 19013KT 01/M02 A3016 RMK A01 T00111023  RH  079%=      5-min Rain = 0
KSVS 142200Z 19012G18KT 01/M02 A3016 RMK A01 T00121022  RH  079%=      5-min Rain = 0
KSVS 142205Z 19013G18KT 01/M02 A3015 RMK A01 T00101022  RH  080%=      5-min Rain = 0
KSVS 142210Z 19013G20KT 01/M02 A3015 RMK A01 T00111021  RH  080%=      5-min Rain = 0
KSVS 142215Z 19015G21KT 01/M02 A3015 RMK A01 T00091021  RH  081%=      5-min Rain = 0
KSVS 142220Z 19012G17KT 01/M02 A3015 RMK A01 T00081021  RH  082%=      5-min Rain = 0
KSVS 142225Z 18014G19KT 01/M02 A3015 RMK A01 T00081021  RH  081%=      5-min Rain = 0
KSVS 142230Z 19015KT 01/M02 A3015 RMK A01 T00071021  RH  082%=      5-min Rain = 0
KSVS 142235Z 19013KT 01/M02 A3014 RMK A01 T00091020  RH  082%=      5-min Rain = 0
KSVS 142240Z 20014G19KT 01/M02 A3014 RMK A01 T00131018  RH  080%=      5-min Rain = 0
KSVS 142245Z 20012G18KT 01/M02 A3014 RMK A01 T00141019  RH  080%=      5-min Rain = 0
KSVS 142250Z 19013G18KT 01/M02 A3014 RMK A01 T00121020  RH  080%=      5-min Rain = 0
KSVS 142255Z 20013G20KT 01/M02 A3014 RMK A01 T00091019  RH  082%=      5-min Rain = 0
KSVS 142300Z 19013KT 01/M02 A3014 RMK A01 T00091019  RH  082%=      5-min Rain = 0
KSVS 142305Z 20013G18KT 01/M02 A3014 RMK A01 T00101018  RH  082%=      5-min Rain = 0
KSVS 142310Z 19014G19KT 01/M02 A3014 RMK A01 T00091019  RH  082%=      5-min Rain = 0
KSVS 142315Z 20014KT 01/M02 A3014 RMK A01 T00081019  RH  083%=      5-min Rain = 0
KSVS 142320Z 20014KT 01/M02 A3014 RMK A01 T00101018  RH  083%=      5-min Rain = 0
KSVS 142325Z 19014KT 01/M02 A3014 RMK A01 T00101018  RH  083%=      5-min Rain = 0
KSVS 142330Z 19012G17KT 01/M02 A3014 RMK A01 T00101017  RH  083%=      5-min Rain = 0
KSVS 142335Z 19011G16KT 01/M02 A3014 RMK A01 T00111016  RH  083%=      5-min Rain = 0
KSVS 142340Z 19014G19KT 01/M02 A3013 RMK A01 T00101017  RH  083%=      5-min Rain = 0
KSVS 142345Z 19014G19KT 01/M02 A3013 RMK A01 T00091017  RH  083%=      5-min Rain = 0
KSVS 142350Z 19016KT 01/M02 A3013 RMK A01 T00081017  RH  084%=      5-min Rain = 0
KSVS 142355Z 19013G18KT 01/M02 A3013 RMK A01 T00081017  RH  084%=      5-min Rain = 0
KSVS 150000Z 19013KT 01/M02 A3014 RMK A01 T00081016  RH  084%=      5-min Rain = 0
KSVS 150005Z 19013G19KT 01/M02 A3013 RMK A01 T00081016  RH  084%=      5-min Rain = 0
KSVS 150010Z 19013G18KT 01/M02 A3013 RMK A01 T00061017  RH  085%=      5-min Rain = 0
KSVS 150015Z 20014KT 01/M02 A3013 RMK A01 T00061017  RH  086%=      5-min Rain = 0
KSVS 150020Z 20013G18KT 01/M02 A3013 RMK A01 T00051017  RH  086%=      5-min Rain = 0
KSVS 150025Z 19015G20KT 00/M02 A3013 RMK A01 T00041017  RH  086%=      5-min Rain = 0
KSVS 150030Z 19014G19KT 00/M02 A3013 RMK A01 T00041018  RH  086%=      5-min Rain = 0
KSVS 150035Z 19014G19KT 00/M02 A3013 RMK A01 T00041017  RH  087%=      5-min Rain = 0
KSVS 150040Z 18013KT 00/M02 A3013 RMK A01 T00031017  RH  087%=      5-min Rain = 0
KSVS 150045Z 19011G16KT 00/M02 A3013 RMK A01 T00011018  RH  088%=      5-min Rain = 0
KSVS 150050Z 20009KT M00/M02 A3013 RMK A01 T10021019  RH  089%=      5-min Rain = 0
KSVS 150055Z 20009KT M01/M02 A3013 RMK A01 T10051020  RH  090%=      5-min Rain = 0
KSVS 150100Z 20010KT M01/M02 A3013 RMK A01 T10061020  RH  091%=      5-min Rain = 0
KSVS 150105Z 20010KT M01/M02 A3014 RMK A01 T10071020  RH  091%=      5-min Rain = 0
KSVS 150110Z 20010KT M01/M02 A3013 RMK A01 T10081021  RH  092%=      5-min Rain = 0
KSVS 150115Z 20010KT M01/M02 A3013 RMK A01 T10091021  RH  092%=      5-min Rain = 0
KSVS 150120Z 20009KT M01/M02 A3013 RMK A01 T10111022  RH  093%=      5-min Rain = 0
KSVS 150125Z 21011KT M01/M02 A3013 RMK A01 T10101021  RH  093%=      5-min Rain = 0
KSVS 150130Z 21010KT M01/M02 A3013 RMK A01 T10111022  RH  093%=      5-min Rain = 0
KSVS 150135Z 21010KT M01/M02 A3013 RMK A01 T10121022  RH  094%=      5-min Rain = 0
KSVS 150140Z 21010KT M01/M02 A3013 RMK A01 T10121022  RH  094%=      5-min Rain = 0
KSVS 150145Z 21010KT M01/M02 A3013 RMK A01 T10131022  RH  094%=      5-min Rain = 0
KSVS 150150Z 21010KT M01/M02 A3013 RMK A01 T10131022  RH  095%=      5-min Rain = 0
KSVS 150155Z 21011KT M01/M02 A3013 RMK A01 T10121021  RH  095%=      5-min Rain = 0
KSVS 150200Z 21011KT M01/M02 A3013 RMK A01 T10111020  RH  095%=      5-min Rain = 0
KSVS 150205Z 22011KT M01/M02 A3013 RMK A01 T10111019  RH  095%=      5-min Rain = 0
KSVS 150210Z 22010KT M01/M02 A3013 RMK A01 T10111019  RH  096%=      5-min Rain = 0
KSVS 150215Z 22011KT M01/M02 A3013 RMK A01 T10101017  RH  096%=      5-min Rain = 0
KSVS 150220Z 21011KT M01/M02 A3013 RMK A01 T10101016  RH  097%=      5-min Rain = 0
KSVS 150225Z 21011KT M01/M02 A3013 RMK A01 T10091015  RH  096%=      5-min Rain = 0
KSVS 150230Z 22009KT M01/M02 A3013 RMK A01 T10101017  RH  096%=      5-min Rain = 0
KSVS 150235Z 22010KT M01/M02 A3013 RMK A01 T10111017  RH  097%=      5-min Rain = 0
KSVS 150240Z 22009KT M01/M02 A3013 RMK A01 T10111017  RH  097%=      5-min Rain = 0
KSVS 150245Z 22009KT M01/M02 A3013 RMK A01 T10111017  RH  097%=      5-min Rain = 0
KSVS 150250Z 21009KT M01/M02 A3012 RMK A01 T10121017  RH  097%=      5-min Rain = 0
KSVS 150255Z 21009KT M01/M02 A3012 RMK A01 T10121016  RH  098%=      5-min Rain = 0
KSVS 150300Z 21009KT M01/M02 A3012 RMK A01 T10121016  RH  098%=      5-min Rain = 0
KSVS 150305Z 21008KT M01/M02 A3012 RMK A01 T10121016  RH  098%=      5-min Rain = 0
KSVS 150310Z 21007KT M01/M02 A3012 RMK A01 T10121016  RH  098%=      5-min Rain = 0
KSVS 150315Z 21008KT M01/M02 A3012 RMK A01 T10141018  RH  098%=      5-min Rain = 0
KSVS 150320Z 21007KT M02/M02 A3012 RMK A01 T10151019  RH  098%=      5-min Rain = 0
KSVS 150325Z 22006KT M02/M02 A3012 RMK A01 T10171020  RH  098%=      5-min Rain = 0
KSVS 150330Z 23006KT M02/M02 A3012 RMK A01 T10181022  RH  098%=      5-min Rain = 0
KSVS 150335Z 23007KT M02/M02 A3012 RMK A01 T10211024  RH  098%=      5-min Rain = 0
KSVS 150340Z 22007KT M02/M03 A3011 RMK A01 T10231026  RH  098%=      5-min Rain = 0
KSVS 150345Z 23007KT M02/M03 A3012 RMK A01 T10231025  RH  099%=      5-min Rain = 0
KSVS 150350Z 23007KT M02/M03 A3012 RMK A01 T10241027  RH  099%=      5-min Rain = 0
KSVS 150355Z 23007KT M03/M03 A3011 RMK A01 T10251028  RH  098%=      5-min Rain = 0
KSVS 150400Z 22007KT M03/M03 A3011 RMK A01 T10261030  RH  098%=      5-min Rain = 0
KSVS 150405Z 23007KT M03/M03 A3011 RMK A01 T10261029  RH  099%=      5-min Rain = 0
KSVS 150410Z 23007KT M02/M03 A3011 RMK A01 T10231025  RH  099%=      5-min Rain = 0
KSVS 150415Z 23008KT M02/M02 A3011 RMK A01 T10201023  RH  099%=      5-min Rain = 0
KSVS 150420Z 23008KT M02/M02 A3011 RMK A01 T10201023  RH  098%=      5-min Rain = 0
KSVS 150425Z 23008KT M02/M03 A3011 RMK A01 T10211025  RH  098%=      5-min Rain = 0
KSVS 150430Z 23008KT M02/M03 A3011 RMK A01 T10221026  RH  098%=      5-min Rain = 0
KSVS 150435Z 23008KT M02/M02 A3011 RMK A01 T10191022  RH  099%=      5-min Rain = 0
KSVS 150440Z 23008KT M02/M02 A301 RMK A01 T10171021  RH  098%=      5-min Rain = 0
KSVS 150445Z 23008KT M02/M02 A301 RMK A01 T10171021  RH  098%=      5-min Rain = 0
KSVS 150450Z 23007KT M02/M02 A301 RMK A01 T10171021  RH  097%=      5-min Rain = 0
KSVS 150455Z 23007KT M02/M02 A301 RMK A01 T10181023  RH  097%=      5-min Rain = 0
KSVS 150500Z 24006KT M02/M03 A301 RMK A01 T10221028  RH  096%=      5-min Rain = 0
KSVS 150505Z 24006KT M03/M03 A301 RMK A01 T10261031  RH  097%=      5-min Rain = 0
KSVS 150510Z 25006KT M03/M03 A301 RMK A01 T10281033  RH  097%=      5-min Rain = 0
KSVS 150515Z 24006KT M03/M03 A301 RMK A01 T10281031  RH  098%=      5-min Rain = 0
KSVS 150520Z 23006KT M03/M03 A3009 RMK A01 T10271030  RH  099%=      5-min Rain = 0
KSVS 150525Z 23006KT M03/M03 A3009 RMK A01 T10261028  RH  099%=      5-min Rain = 0
KSVS 150530Z 22007KT M03/M03 A3009 RMK A01 T10251027  RH  099%=      5-min Rain = 0
KSVS 150535Z 21008KT M02/M02 A3009 RMK A01 T10211024  RH  099%=      5-min Rain = 0
KSVS 150540Z 20008KT M02/M02 A3008 RMK A01 T10151018  RH  099%=      5-min Rain = 0
KSVS 150545Z 20008KT M01/M02 A3008 RMK A01 T10131019  RH  096%=      5-min Rain = 0
KSVS 150550Z 20007KT M02/M02 A3008 RMK A01 T10151022  RH  096%=      5-min Rain = 0
KSVS 150555Z 21006KT M02/M03 A3008 RMK A01 T10191025  RH  096%=      5-min Rain = 0

Page generated in 0.0417 seconds.